Station Historical Data
Daily Summary for February 4, 2017 Units:  Metric    English   Both
Next Day »
Daily Weekly Monthly Yearly Custom
  High: Low: Average:
Temperature: 8.8 °C 6.9 °C 7.9 °C
Dew Point: 8.2 °C 6.2 °C 7.2 °C
Humidity: 96% 95% 95%
Wind Speed: 27.4km/h 0km/h 6.4km/h
Wind Gust: 32.2km/h - -
Wind- - South
Pressure: 1021.9 hPa 1019.2 hPa -
Precipitation: 5.33 mm    
Historical Graphs
 
 
Tabular Data for February 4, 2017
Time Temperature Dew Point Pressure Wind Wind Speed Wind Gust Humidity Rainfall Rate (Hourly) solar Conditions
00:01 7.8 °C 7.1 °C 1019.5 hPa SSW 8 km/h 20.9 km/h 95% 3.56 mm 0.00 W/m2
00:06 7.8 °C 7.1 °C 1019.2 hPa South 8 km/h 22.5 km/h 95% 7.37 mm 0.00 W/m2
00:11 7.8 °C 7.1 °C 1019.5 hPa SSE 12.9 km/h 24.1 km/h 95% 4.57 mm 0.00 W/m2
00:16 7.8 °C 7.1 °C 1019.5 hPa SSE 6.4 km/h 25.7 km/h 95% 15.49 mm 0.00 W/m2
00:21 7.8 °C 7.1 °C 1019.5 hPa SSE 16.1 km/h 22.5 km/h 95% 4.57 mm 0.00 W/m2
00:26 7.8 °C 7.1 °C 1019.5 hPa South 16.1 km/h 20.9 km/h 95% 2.03 mm 0.00 W/m2
00:31 7.8 °C 7.1 °C 1019.5 hPa South 11.3 km/h 24.1 km/h 95% 1.27 mm 0.00 W/m2
00:36 7.8 °C 7.1 °C 1019.5 hPa South 27.4 km/h 30.6 km/h 95% 1.02 mm 0.00 W/m2
00:41 7.8 °C 7.1 °C 1019.5 hPa South 12.9 km/h 32.2 km/h 95% 1.02 mm 0.00 W/m2
00:46 7.8 °C 7.1 °C 1019.5 hPa SSE 14.5 km/h 20.9 km/h 95% 1.02 mm 0.00 W/m2
00:51 7.8 °C 7.1 °C 1019.9 hPa SSW 14.5 km/h 22.5 km/h 95% 0 mm 0.00 W/m2
00:56 7.9 °C 7.1 °C 1019.9 hPa SSW 19.3 km/h 29 km/h 95% 0 mm 0.00 W/m2
01:01 7.8 °C 7.1 °C 1019.9 hPa South 9.7 km/h 22.5 km/h 95% 0 mm 0.00 W/m2
01:06 7.8 °C 7.1 °C 1019.9 hPa South 11.3 km/h 25.7 km/h 95% 0 mm 0.00 W/m2
01:11 7.8 °C 7.1 °C 1019.9 hPa Calm   19.3 km/h 95% 0 mm 0.00 W/m2
01:16 7.8 °C 7.1 °C 1019.9 hPa South 17.7 km/h 20.9 km/h 95% 0 mm 0.00 W/m2
01:21 7.8 °C 7.1 °C 1019.9 hPa Calm   19.3 km/h 95% 0 mm 0.00 W/m2
01:26 7.8 °C 7.1 °C 1019.9 hPa South 16.1 km/h 25.7 km/h 95% 0 mm 0.00 W/m2
01:31 7.8 °C 7.1 °C 1019.9 hPa South 17.7 km/h 27.4 km/h 95% 0 mm 0.00 W/m2
01:36 7.8 °C 7.1 °C 1019.9 hPa Calm   19.3 km/h 95% 0 mm 0.00 W/m2
01:41 7.8 °C 7.1 °C 1019.9 hPa South 19.3 km/h 20.9 km/h 95% 0 mm 0.00 W/m2
01:46 7.8 °C 7.1 °C 1019.9 hPa SSE 19.3 km/h 24.1 km/h 95% 0 mm 0.00 W/m2
01:51 7.8 °C 7.1 °C 1019.9 hPa South 12.9 km/h 12.9 km/h 95% 0 mm 0.00 W/m2
01:56 7.8 °C 7.1 °C 1019.9 hPa Calm   19.3 km/h 95% 0 mm 0.00 W/m2
02:01 7.8 °C 7.1 °C 1019.9 hPa South 8 km/h 16.1 km/h 95% 0 mm 0.00 W/m2
02:06 7.8 °C 7.1 °C 1019.9 hPa SSW 16.1 km/h 19.3 km/h 95% 0 mm 0.00 W/m2
02:11 7.8 °C 7.1 °C 1019.9 hPa South 11.3 km/h 25.7 km/h 95% 0 mm 0.00 W/m2
02:16 7.8 °C 7.1 °C 1019.9 hPa SSW 3.2 km/h 14.5 km/h 95% 0 mm 0.00 W/m2
02:21 7.8 °C 7.1 °C 1019.9 hPa Calm   14.5 km/h 95% 0 mm 0.00 W/m2
02:26 7.8 °C 7.1 °C 1019.9 hPa SSW 8 km/h 12.9 km/h 95% 0 mm 0.00 W/m2
02:31 7.8 °C 7.1 °C 1019.9 hPa Calm   16.1 km/h 95% 0 mm 0.00 W/m2
02:36 7.8 °C 7.1 °C 1019.9 hPa SSW 11.3 km/h 17.7 km/h 95% 0 mm 0.00 W/m2
02:41 7.8 °C 7.1 °C 1019.9 hPa Calm   20.9 km/h 95% 0 mm 0.00 W/m2
02:46 7.8 °C 7.1 °C 1019.9 hPa Calm   20.9 km/h 95% 0 mm 0.00 W/m2
02:51 7.8 °C 7.1 °C 1019.9 hPa Calm   20.9 km/h 95% 0 mm 0.00 W/m2
02:56 7.8 °C 7.1 °C 1019.9 hPa South 12.9 km/h 12.9 km/h 95% 0 mm 0.00 W/m2
03:01 7.8 °C 7.1 °C 1019.9 hPa SSW 8 km/h 8 km/h 95% 0 mm 0.00 W/m2
03:06 7.8 °C 7.1 °C 1019.9 hPa South 12.9 km/h 16.1 km/h 95% 0 mm 0.00 W/m2
03:11 7.8 °C 7.1 °C 1019.5 hPa South 3.2 km/h 3.2 km/h 95% 0 mm 0.00 W/m2
03:16 7.8 °C 7.1 °C 1019.5 hPa Calm   1.6 km/h 95% 0 mm 0.00 W/m2
03:21 7.7 °C 6.9 °C 1019.5 hPa South 12.9 km/h 14.5 km/h 95% 0 mm 0.00 W/m2
03:26 7.7 °C 6.9 °C 1019.5 hPa Calm     95% 0 mm 0.00 W/m2
03:31 7.7 °C 6.9 °C 1019.5 hPa Calm     95% 0 mm 0.00 W/m2
03:36 7.7 °C 6.9 °C 1019.5 hPa SSE 1.6 km/h 1.6 km/h 95% 0 mm 0.00 W/m2
03:41 7.7 °C 6.9 °C 1019.5 hPa Calm     95% 0 mm 0.00 W/m2
03:46 7.7 °C 6.9 °C 1019.5 hPa SSE 12.9 km/h 14.5 km/h 95% 0 mm 0.00 W/m2
03:51 7.7 °C 6.9 °C 1019.5 hPa Calm     95% 0 mm 0.00 W/m2
03:56 7.7 °C 6.9 °C 1019.5 hPa Calm     95% 0 mm 0.00 W/m2
04:01 7.7 °C 6.9 °C 1019.5 hPa SSW 9.7 km/h 9.7 km/h 95% 0 mm 0.00 W/m2
04:06 7.7 °C 6.9 °C 1019.2 hPa Calm     95% 0 mm 0.00 W/m2
04:11 7.7 °C 6.9 °C 1019.5 hPa SSW 17.7 km/h 19.3 km/h 95% 0 mm 0.00 W/m2
04:16 7.7 °C 6.9 °C 1019.5 hPa SSW 8 km/h 12.9 km/h 95% 0 mm 0.00 W/m2
04:21 7.7 °C 6.9 °C 1019.5 hPa South 6.4 km/h 11.3 km/h 95% 0 mm 0.00 W/m2
04:26 7.7 °C 6.9 °C 1019.2 hPa Calm     95% 0 mm 0.00 W/m2
04:31 7.7 °C 6.9 °C 1019.2 hPa South 11.3 km/h 16.1 km/h 95% 0 mm 0.00 W/m2
04:36 7.7 °C 6.9 °C 1019.2 hPa SSE 16.1 km/h 19.3 km/h 95% 0 mm 0.00 W/m2
04:41 7.7 °C 6.9 °C 1019.2 hPa SSW 9.7 km/h 11.3 km/h 95% 0 mm 0.00 W/m2
04:46 7.7 °C 6.9 °C 1019.2 hPa SSW 8 km/h 12.9 km/h 95% 0 mm 0.00 W/m2
04:51 7.7 °C 6.9 °C 1019.2 hPa South 12.9 km/h 12.9 km/h 95% 0 mm 0.00 W/m2
04:56 7.7 °C 6.9 °C 1019.2 hPa SSW 6.4 km/h 14.5 km/h 95% 0 mm 0.00 W/m2
05:01 7.7 °C 6.9 °C 1019.2 hPa SSW 11.3 km/h 11.3 km/h 95% 0 mm 0.00 W/m2
05:06 7.8 °C 7.1 °C 1019.2 hPa Calm   11.3 km/h 95% 0 mm 0.00 W/m2
05:11 7.8 °C 7.1 °C 1019.2 hPa Calm     95% 0 mm 0.00 W/m2
05:16 7.8 °C 7.1 °C 1019.5 hPa South 9.7 km/h 17.7 km/h 95% 0 mm 0.00 W/m2
05:21 7.8 °C 7.1 °C 1019.5 hPa SSE 3.2 km/h 9.7 km/h 95% 0 mm 0.00 W/m2
05:26 7.8 °C 7.1 °C 1019.5 hPa Calm     95% 0 mm 0.00 W/m2
05:31 7.8 °C 7.1 °C 1019.5 hPa South 11.3 km/h 19.3 km/h 95% 0 mm 0.00 W/m2
05:36 7.8 °C 7.1 °C 1019.5 hPa South 17.7 km/h 20.9 km/h 95% 0 mm 0.00 W/m2
05:41 7.9 °C 7.1 °C 1019.5 hPa South 14.5 km/h 20.9 km/h 95% 0 mm 0.00 W/m2
05:46 7.9 °C 7.1 °C 1019.9 hPa South 17.7 km/h 25.7 km/h 95% 0 mm 0.00 W/m2
05:51 7.9 °C 7.1 °C 1019.9 hPa South 16.1 km/h 22.5 km/h 95% 0 mm 0.00 W/m2
05:56 7.9 °C 7.2 °C 1019.9 hPa South 9.7 km/h 16.1 km/h 95% 0 mm 0.00 W/m2
06:01 7.9 °C 7.2 °C 1019.9 hPa South 9.7 km/h 16.1 km/h 95% 0 mm 0.00 W/m2
06:06 7.9 °C 7.2 °C 1020.2 hPa SSW 17.7 km/h 19.3 km/h 95% 0 mm 0.00 W/m2
06:11 7.9 °C 7.2 °C 1020.2 hPa Calm   32.2 km/h 95% 0 mm 0.00 W/m2
06:16 7.9 °C 7.2 °C 1019.9 hPa SSW 9.7 km/h 9.7 km/h 95% 0 mm 0.00 W/m2
06:21 7.9 °C 7.2 °C 1020.2 hPa South 19.3 km/h 20.9 km/h 95% 0 mm 0.00 W/m2
06:26 7.9 °C 7.2 °C 1020.2 hPa SSW 14.5 km/h 14.5 km/h 95% 0 mm 0.00 W/m2
06:31 7.9 °C 7.2 °C 1020.2 hPa South 17.7 km/h 17.7 km/h 95% 0 mm 0.00 W/m2
06:36 7.9 °C 7.1 °C 1020.2 hPa South 17.7 km/h 20.9 km/h 95% 0 mm 0.00 W/m2
06:42 7.9 °C 7.1 °C 1020.2 hPa SSW 9.7 km/h 17.7 km/h 95% 0 mm 0.00 W/m2
06:46 7.9 °C 7.1 °C 1020.2 hPa SSW 8 km/h 17.7 km/h 95% 0 mm 0.00 W/m2
06:51 7.9 °C 7.1 °C 1020.2 hPa South 9.7 km/h 14.5 km/h 95% 0 mm 0.00 W/m2
06:56 7.9 °C 7.1 °C 1020.2 hPa South 17.7 km/h 20.9 km/h 95% 0 mm 0.00 W/m2
07:02 7.9 °C 7.1 °C 1020.2 hPa South 8 km/h 19.3 km/h 95% 0 mm 0.00 W/m2
07:07 7.9 °C 7.1 °C 1020.5 hPa South 11.3 km/h 16.1 km/h 95% 0 mm 0.00 W/m2
07:12 7.8 °C 7.1 °C 1020.5 hPa South 9.7 km/h 14.5 km/h 95% 0 mm 0.00 W/m2
07:17 7.8 °C 7.1 °C 1020.5 hPa South 11.3 km/h 11.3 km/h 95% 0 mm 0.00 W/m2
07:22 7.8 °C 7.1 °C 1020.5 hPa SSW 19.3 km/h 19.3 km/h 95% 0 mm 5.00 W/m2
07:27 7.8 °C 7.1 °C 1020.5 hPa South 11.3 km/h 20.9 km/h 95% 0 mm 7.00 W/m2
07:32 7.8 °C 7.1 °C 1020.5 hPa South 9.7 km/h 16.1 km/h 95% 0 mm 9.00 W/m2
07:37 7.8 °C 7.1 °C 1020.5 hPa SSW 14.5 km/h 16.1 km/h 95% 0 mm 14.00 W/m2
07:42 7.8 °C 7.1 °C 1020.5 hPa SW 3.2 km/h 14.5 km/h 95% 0 mm 16.00 W/m2
07:47 7.8 °C 7.1 °C 1020.5 hPa South 16.1 km/h 16.1 km/h 95% 0 mm 23.00 W/m2
07:52 7.7 °C 6.9 °C 1020.5 hPa Calm     95% 0 mm 25.00 W/m2
07:57 7.7 °C 6.9 °C 1020.5 hPa Calm     95% 0 mm 16.00 W/m2
08:02 7.8 °C 7.1 °C 1020.5 hPa Calm     95% 0 mm 12.00 W/m2
08:07 7.8 °C 7.1 °C 1020.5 hPa SSW 4.8 km/h 11.3 km/h 95% 0 mm 14.00 W/m2
08:12 7.8 °C 7.1 °C 1020.5 hPa South 6.4 km/h 17.7 km/h 95% 0 mm 21.00 W/m2
08:17 7.8 °C 7.1 °C 1020.5 hPa Calm   6.4 km/h 95% 0 mm 12.00 W/m2
08:22 7.8 °C 7.1 °C 1020.9 hPa South 19.3 km/h 19.3 km/h 95% 0 mm 12.00 W/m2
08:27 7.8 °C 7.1 °C 1020.9 hPa SSW 14.5 km/h 29 km/h 95% 0 mm 21.00 W/m2
08:32 7.9 °C 7.1 °C 1020.9 hPa SSW 14.5 km/h 19.3 km/h 95% 0 mm 14.00 W/m2
08:37 7.9 °C 7.1 °C 1020.9 hPa Calm   14.5 km/h 95% 0 mm 11.00 W/m2
08:42 7.9 °C 7.1 °C 1020.9 hPa SSW 17.7 km/h 20.9 km/h 95% 0 mm 28.00 W/m2
08:47 7.9 °C 7.1 °C 1020.9 hPa South 9.7 km/h 20.9 km/h 95% 0 mm 40.00 W/m2
08:52 7.9 °C 7.1 °C 1020.9 hPa SSW 4.8 km/h 9.7 km/h 95% 0 mm 35.00 W/m2
08:57 7.9 °C 7.1 °C 1021.2 hPa South 6.4 km/h 14.5 km/h 95% 0 mm 35.00 W/m2
09:02 7.8 °C 7.1 °C 1021.2 hPa SSE 12.9 km/h 16.1 km/h 95% 0 mm 49.00 W/m2
09:07 7.9 °C 7.1 °C 1020.9 hPa SSW 9.7 km/h 14.5 km/h 95% 0 mm 60.00 W/m2
09:12 7.9 °C 7.1 °C 1020.9 hPa SSW 17.7 km/h 22.5 km/h 95% 0 mm 47.00 W/m2
09:17 7.9 °C 7.1 °C 1020.9 hPa Calm   22.5 km/h 95% 0 mm 65.00 W/m2
09:22 7.9 °C 7.1 °C 1021.2 hPa South 9.7 km/h 14.5 km/h 95% 0 mm 58.00 W/m2
09:27 7.9 °C 7.2 °C 1021.2 hPa SSE 14.5 km/h 20.9 km/h 95% 0 mm 44.00 W/m2
09:32 7.9 °C 7.2 °C 1021.2 hPa South 25.7 km/h 25.7 km/h 95% 0 mm 72.00 W/m2
09:37 7.9 °C 7.2 °C 1021.2 hPa South 11.3 km/h 14.5 km/h 95% 0 mm 40.00 W/m2
09:42 7.9 °C 7.2 °C 1021.2 hPa South 16.1 km/h 24.1 km/h 95% 0 mm 46.00 W/m2
09:47 7.9 °C 7.2 °C 1021.6 hPa Calm     95% 0 mm 35.00 W/m2
09:52 7.9 °C 7.2 °C 1021.6 hPa South 19.3 km/h 29 km/h 95% 0 mm 37.00 W/m2
09:57 7.9 °C 7.1 °C 1021.6 hPa South 6.4 km/h 17.7 km/h 95% 0 mm 47.00 W/m2
10:02 7.9 °C 7.1 °C 1021.6 hPa South 22.5 km/h 22.5 km/h 95% 0 mm 37.00 W/m2
10:07 7.8 °C 7.1 °C 1021.6 hPa Calm   9.7 km/h 95% 0 mm 77.00 W/m2
10:12 7.8 °C 7.1 °C 1021.6 hPa SSW 6.4 km/h 9.7 km/h 95% 0 mm 51.00 W/m2
10:17 7.8 °C 7.1 °C 1021.9 hPa South 9.7 km/h 17.7 km/h 95% 0 mm 40.00 W/m2
10:22 7.8 °C 7.1 °C 1021.9 hPa South 19.3 km/h 20.9 km/h 95% 0 mm 53.00 W/m2
10:27 7.8 °C 7.1 °C 1021.9 hPa South 12.9 km/h 27.4 km/h 95% 2.03 mm 69.00 W/m2
10:32 7.8 °C 7.1 °C 1021.9 hPa SSW 8 km/h 29 km/h 95% 2.03 mm 65.00 W/m2
10:37 7.8 °C 7.1 °C 1021.9 hPa South 12.9 km/h 16.1 km/h 95% 1.27 mm 46.00 W/m2
10:42 7.8 °C 7.1 °C 1021.9 hPa SSW 22.5 km/h 27.4 km/h 95% 0 mm 95.00 W/m2
10:47 7.8 °C 7.1 °C 1021.9 hPa South 24.1 km/h 25.7 km/h 95% 0 mm 111.00 W/m2
10:52 7.8 °C 7.1 °C 1021.9 hPa SSW 22.5 km/h 22.5 km/h 95% 0 mm 90.00 W/m2
10:57 7.8 °C 7.1 °C 1021.9 hPa SSW 17.7 km/h 20.9 km/h 95% 18.54 mm 90.00 W/m2
11:02 7.9 °C 7.1 °C 1021.9 hPa Calm   16.1 km/h 95% 3.3 mm 83.00 W/m2
11:07 7.8 °C 7.1 °C 1021.9 hPa SW 6.4 km/h 25.7 km/h 95% 1.52 mm 63.00 W/m2
11:12 7.8 °C 7.1 °C 1021.9 hPa SW 12.9 km/h 27.4 km/h 95% 1.02 mm 130.00 W/m2
11:17 7.8 °C 7.1 °C 1021.9 hPa South 22.5 km/h 25.7 km/h 95% 1.02 mm 251.00 W/m2
11:22 7.8 °C 7.1 °C 1021.9 hPa South 3.2 km/h 20.9 km/h 95% 1.02 mm 188.00 W/m2
11:27 7.9 °C 7.1 °C 1021.9 hPa SSE 19.3 km/h 22.5 km/h 95% 1.02 mm 178.00 W/m2
11:32 7.9 °C 7.2 °C 1021.9 hPa South 16.1 km/h 24.1 km/h 95% 0 mm 241.00 W/m2
11:37 8 °C 7.2 °C 1021.9 hPa SSW 22.5 km/h 24.1 km/h 95% 0 mm 158.00 W/m2
11:42 8.1 °C 7.3 °C 1021.9 hPa SSW 6.4 km/h 16.1 km/h 95% 0 mm 105.00 W/m2
11:47 8.1 °C 7.3 °C 1021.9 hPa South 6.4 km/h 16.1 km/h 95% 0 mm 186.00 W/m2
11:52 8.1 °C 7.3 °C 1021.9 hPa SSW 17.7 km/h 19.3 km/h 95% 0 mm 128.00 W/m2
11:57 8.1 °C 7.5 °C 1021.9 hPa SSW 1.6 km/h 17.7 km/h 96% 0 mm 155.00 W/m2
12:02 8.2 °C 7.6 °C 1021.6 hPa SSW 4.8 km/h 16.1 km/h 96% 0 mm 139.00 W/m2
12:07 8.2 °C 7.6 °C 1021.6 hPa SSW 12.9 km/h 20.9 km/h 96% 0 mm 160.00 W/m2
12:12 8.2 °C 7.6 °C 1021.6 hPa South 6.4 km/h 12.9 km/h 96% 0 mm 190.00 W/m2
12:17 8.3 °C 7.7 °C 1021.6 hPa SSW 6.4 km/h 12.9 km/h 96% 0 mm 202.00 W/m2
12:22 8.3 °C 7.7 °C 1021.6 hPa Calm     96% 0 mm 195.00 W/m2
12:27 8.4 °C 7.8 °C 1021.2 hPa Calm     96% 0 mm 274.00 W/m2
12:32 8.4 °C 7.8 °C 1021.2 hPa Calm   14.5 km/h 96% 0 mm 510.00 W/m2
12:37 8.6 °C 7.9 °C 1021.2 hPa South 8 km/h 17.7 km/h 96% 0 mm 527.00 W/m2
12:42 8.6 °C 8 °C 1021.2 hPa Calm   1.6 km/h 96% 0 mm 142.00 W/m2
12:47 8.6 °C 8 °C 1021.2 hPa South 8 km/h 17.7 km/h 96% 0 mm 128.00 W/m2
12:52 8.6 °C 7.9 °C 1021.2 hPa Calm   14.5 km/h 96% 0 mm 272.00 W/m2
12:57 8.6 °C 7.9 °C 1020.9 hPa SSW 8 km/h 19.3 km/h 96% 0 mm 381.00 W/m2
13:02 8.6 °C 8 °C 1020.9 hPa SW 14.5 km/h 14.5 km/h 96% 0 mm 144.00 W/m2
13:07 8.6 °C 7.9 °C 1020.9 hPa SSE 11.3 km/h 16.1 km/h 96% 0 mm 162.00 W/m2
13:12 8.6 °C 7.9 °C 1020.9 hPa SSW 6.4 km/h 14.5 km/h 96% 0 mm 141.00 W/m2
13:17 8.6 °C 7.9 °C 1020.9 hPa Calm   17.7 km/h 96% 0 mm 239.00 W/m2
13:22 8.5 °C 7.9 °C 1020.5 hPa South 9.7 km/h 16.1 km/h 96% 0 mm 186.00 W/m2
13:27 8.6 °C 7.9 °C 1020.5 hPa Calm   1.6 km/h 96% 0 mm 274.00 W/m2
13:32 8.6 °C 7.9 °C 1020.5 hPa South 12.9 km/h 19.3 km/h 96% 0 mm 218.00 W/m2
13:37 8.6 °C 7.9 °C 1020.5 hPa SSW 11.3 km/h 17.7 km/h 96% 0 mm 149.00 W/m2
13:42 8.6 °C 7.9 °C 1020.5 hPa Calm   9.7 km/h 96% 0 mm 97.00 W/m2
13:48 8.6 °C 8 °C 1020.5 hPa South 9.7 km/h 11.3 km/h 96% 0 mm 109.00 W/m2
13:52 8.6 °C 8 °C 1020.5 hPa SW 4.8 km/h 17.7 km/h 96% 0 mm 137.00 W/m2
13:57 8.6 °C 8 °C 1020.5 hPa SW 6.4 km/h 14.5 km/h 96% 0 mm 113.00 W/m2
14:03 8.6 °C 8 °C 1020.5 hPa SW 3.2 km/h 11.3 km/h 96% 0 mm 95.00 W/m2
14:08 8.6 °C 8 °C 1020.5 hPa Calm     96% 0 mm 104.00 W/m2
14:12 8.6 °C 7.8 °C 1020.5 hPa Calm     95% 0 mm 169.00 W/m2
14:18 8.6 °C 7.8 °C 1020.2 hPa Calm     95% 0 mm 193.00 W/m2
14:23 8.7 °C 7.9 °C 1020.2 hPa Calm     95% 0 mm 313.00 W/m2
14:28 8.7 °C 7.9 °C 1020.2 hPa SW 11.3 km/h 19.3 km/h 95% 0 mm 295.00 W/m2
14:32 8.8 °C 8 °C 1020.2 hPa South 22.5 km/h 24.1 km/h 95% 0 mm 202.00 W/m2
14:37 8.8 °C 8 °C 1019.9 hPa South 11.3 km/h 16.1 km/h 95% 0 mm 204.00 W/m2
14:42 8.8 °C 8.2 °C 1019.9 hPa Calm   8 km/h 96% 0 mm 195.00 W/m2
14:47 8.8 °C 8.2 °C 1019.9 hPa Calm   14.5 km/h 96% 0 mm 142.00 W/m2
14:52 8.8 °C 8.2 °C 1019.9 hPa South 9.7 km/h 17.7 km/h 96% 0 mm 151.00 W/m2
14:58 8.8 °C 8.2 °C 1019.9 hPa SSE 14.5 km/h 20.9 km/h 96% 0 mm 171.00 W/m2
15:03 8.8 °C 8.1 °C 1019.9 hPa Calm   16.1 km/h 95% 0 mm 130.00 W/m2
15:08 8.8 °C 8.1 °C 1019.9 hPa South 9.7 km/h 11.3 km/h 95% 0 mm 95.00 W/m2
15:13 8.8 °C 8.1 °C 1019.9 hPa South 12.9 km/h 12.9 km/h 95% 0 mm 83.00 W/m2
15:18 8.8 °C 8.1 °C 1019.9 hPa SSE 17.7 km/h 24.1 km/h 95% 0 mm 183.00 W/m2
15:23 8.8 °C 8 °C 1019.9 hPa SSE 17.7 km/h 19.3 km/h 95% 0 mm 128.00 W/m2
15:28 8.8 °C 8 °C 1019.9 hPa Calm   14.5 km/h 95% 0 mm 114.00 W/m2
15:33 8.8 °C 8 °C 1019.9 hPa South 9.7 km/h 9.7 km/h 95% 0 mm 155.00 W/m2
15:38 8.8 °C 8 °C 1019.9 hPa Calm   1.6 km/h 95% 0 mm 113.00 W/m2
15:43 8.8 °C 8 °C 1019.9 hPa Calm   14.5 km/h 95% 0 mm 109.00 W/m2
15:46 8.8 °C 8 °C 1019.9 hPa South 9.7 km/h 14.5 km/h 95% 0 mm 120.00 W/m2
15:51 8.8 °C 8 °C 1019.9 hPa Calm   17.7 km/h 95% 0 mm 111.00 W/m2
15:56 8.8 °C 8 °C 1019.9 hPa SSW 17.7 km/h 20.9 km/h 95% 0 mm 121.00 W/m2
16:01 8.8 °C 8 °C 1019.9 hPa South 16.1 km/h 17.7 km/h 95% 0 mm 104.00 W/m2
16:06 8.7 °C 7.9 °C 1019.9 hPa South 12.9 km/h 19.3 km/h 95% 0 mm 104.00 W/m2
16:11 8.7 °C 7.9 °C 1019.9 hPa South 1.6 km/h 19.3 km/h 95% 0 mm 107.00 W/m2
16:16 8.7 °C 7.9 °C 1019.5 hPa SSE 11.3 km/h 16.1 km/h 95% 0 mm 100.00 W/m2
16:21 8.7 °C 7.9 °C 1019.5 hPa SSE 8 km/h 14.5 km/h 95% 0 mm 86.00 W/m2
16:26 8.7 °C 7.9 °C 1019.9 hPa South 3.2 km/h 19.3 km/h 95% 0 mm 79.00 W/m2
16:31 8.6 °C 7.8 °C 1019.9 hPa Calm   16.1 km/h 95% 0 mm 58.00 W/m2
16:36 8.6 °C 7.8 °C 1019.9 hPa SSW 11.3 km/h 14.5 km/h 95% 0 mm 53.00 W/m2
16:41 8.5 °C 7.7 °C 1019.9 hPa South 6.4 km/h 12.9 km/h 95% 0 mm 40.00 W/m2
16:46 8.5 °C 7.7 °C 1019.9 hPa South 8 km/h 14.5 km/h 95% 0 mm 33.00 W/m2
16:51 8.4 °C 7.7 °C 1019.9 hPa Calm   14.5 km/h 95% 0 mm 26.00 W/m2
16:56 8.4 °C 7.7 °C 1019.9 hPa Calm     95% 0 mm 18.00 W/m2
17:01 8.4 °C 7.7 °C 1019.9 hPa Calm     95% 0 mm 19.00 W/m2
17:06 8.4 °C 7.7 °C 1019.9 hPa Calm     95% 0 mm 16.00 W/m2
17:11 8.4 °C 7.7 °C 1019.9 hPa Calm     95% 0 mm 12.00 W/m2
17:16 8.4 °C 7.7 °C 1019.9 hPa Calm     95% 0 mm 9.00 W/m2
17:21 8.4 °C 7.6 °C 1019.9 hPa Calm     95% 0 mm 5.00 W/m2
17:26 8.3 °C 7.6 °C 1019.9 hPa Calm     95% 0 mm 5.00 W/m2
17:31 8.3 °C 7.6 °C 1019.9 hPa Calm     95% 0 mm 0.00 W/m2
17:36 8.3 °C 7.6 °C 1019.9 hPa Calm     95% 0 mm 0.00 W/m2
17:41 8.3 °C 7.6 °C 1019.9 hPa Calm     95% 0 mm 0.00 W/m2
17:46 8.3 °C 7.5 °C 1019.9 hPa Calm     95% 0 mm 0.00 W/m2
17:51 8.3 °C 7.5 °C 1019.9 hPa Calm     95% 0 mm 0.00 W/m2
17:56 8.2 °C 7.5 °C 1019.9 hPa Calm     95% 0 mm 0.00 W/m2
18:01 8.3 °C 7.5 °C 1020.2 hPa Calm     95% 0 mm 0.00 W/m2
18:06 8.3 °C 7.5 °C 1020.2 hPa Calm     95% 0 mm 0.00 W/m2
18:11 8.3 °C 7.5 °C 1020.2 hPa Calm     95% 0 mm 0.00 W/m2
18:16 8.2 °C 7.5 °C 1020.2 hPa Calm     95% 0 mm 0.00 W/m2
18:21 8.3 °C 7.5 °C 1020.2 hPa Calm     95% 0 mm 0.00 W/m2
18:26 8.3 °C 7.5 °C 1020.2 hPa Calm     95% 0 mm 0.00 W/m2
18:31 8.3 °C 7.5 °C 1020.5 hPa Calm     95% 0 mm 0.00 W/m2
18:36 8.3 °C 7.5 °C 1020.2 hPa Calm     95% 0 mm 0.00 W/m2
18:41 8.3 °C 7.5 °C 1020.2 hPa Calm     95% 0 mm 0.00 W/m2
18:46 8.3 °C 7.5 °C 1020.5 hPa Calm     95% 0 mm 0.00 W/m2
18:51 8.3 °C 7.5 °C 1020.5 hPa Calm     95% 0 mm 0.00 W/m2
18:56 8.3 °C 7.5 °C 1020.5 hPa Calm     95% 0 mm 0.00 W/m2
19:01 8.2 °C 7.5 °C 1020.5 hPa Calm     95% 0 mm 0.00 W/m2
19:06 8.2 °C 7.5 °C 1020.9 hPa Calm     95% 0 mm 0.00 W/m2
19:11 8.3 °C 7.5 °C 1020.9 hPa Calm     95% 0 mm 0.00 W/m2
19:16 8.2 °C 7.5 °C 1020.9 hPa Calm     95% 0 mm 0.00 W/m2
19:21 8.2 °C 7.5 °C 1020.9 hPa Calm     95% 0 mm 0.00 W/m2
19:26 8.2 °C 7.4 °C 1020.9 hPa Calm     95% 0 mm 0.00 W/m2
19:31 8.2 °C 7.4 °C 1020.9 hPa Calm     95% 0 mm 0.00 W/m2
19:36 8.2 °C 7.4 °C 1020.9 hPa Calm     95% 0 mm 0.00 W/m2
19:41 8.2 °C 7.4 °C 1020.9 hPa Calm     95% 0 mm 0.00 W/m2
19:46 8.2 °C 7.4 °C 1020.9 hPa Calm     95% 0 mm 0.00 W/m2
19:51 8.1 °C 7.3 °C 1020.9 hPa Calm     95% 0 mm 0.00 W/m2
19:56 8.2 °C 7.4 °C 1020.9 hPa Calm     95% 0 mm 0.00 W/m2
20:01 8.1 °C 7.3 °C 1020.9 hPa Calm     95% 0 mm 0.00 W/m2
20:06 8.1 °C 7.3 °C 1020.9 hPa Calm     95% 0 mm 0.00 W/m2
20:11 8 °C 7.2 °C 1020.9 hPa Calm     95% 0 mm 0.00 W/m2
20:16 7.9 °C 7.2 °C 1020.5 hPa Calm     95% 0 mm 0.00 W/m2
20:21 7.9 °C 7.1 °C 1020.5 hPa Calm     95% 0 mm 0.00 W/m2
20:26 7.8 °C 7.1 °C 1020.5 hPa Calm     95% 0 mm 0.00 W/m2
20:31 7.8 °C 7.1 °C 1020.9 hPa Calm     95% 0 mm 0.00 W/m2
20:36 7.8 °C 7.1 °C 1020.9 hPa Calm     95% 0 mm 0.00 W/m2
20:41 7.7 °C 6.9 °C 1020.5 hPa Calm     95% 0 mm 0.00 W/m2
20:46 7.7 °C 6.9 °C 1020.5 hPa Calm     95% 0 mm 0.00 W/m2
20:51 7.7 °C 6.9 °C 1020.5 hPa Calm     95% 0 mm 0.00 W/m2
20:56 7.6 °C 6.8 °C 1020.5 hPa Calm     95% 0 mm 0.00 W/m2
21:01 7.6 °C 6.8 °C 1020.5 hPa Calm     95% 0 mm 0.00 W/m2
21:06 7.6 °C 6.8 °C 1020.5 hPa Calm     95% 0 mm 0.00 W/m2
21:11 7.5 °C 6.8 °C 1020.9 hPa Calm     95% 0 mm 0.00 W/m2
21:16 7.4 °C 6.7 °C 1020.9 hPa Calm     95% 0 mm 0.00 W/m2
21:21 7.4 °C 6.7 °C 1020.9 hPa Calm     95% 0 mm 0.00 W/m2
21:26 7.3 °C 6.6 °C 1020.9 hPa Calm     95% 0 mm 0.00 W/m2
21:31 7.3 °C 6.6 °C 1020.9 hPa Calm     95% 0 mm 0.00 W/m2
21:36 7.2 °C 6.5 °C 1020.9 hPa SSE 1.6 km/h 11.3 km/h 95% 0 mm 0.00 W/m2
21:41 7.2 °C 6.5 °C 1020.9 hPa Calm   3.2 km/h 95% 0 mm 0.00 W/m2
21:46 7.2 °C 6.4 °C 1020.9 hPa Calm     95% 0 mm 0.00 W/m2
21:51 7.2 °C 6.4 °C 1021.2 hPa Calm     95% 0 mm 0.00 W/m2
21:56 7.1 °C 6.4 °C 1021.2 hPa Calm     95% 0 mm 0.00 W/m2
22:01 7.1 °C 6.3 °C 1021.2 hPa Calm     95% 0 mm 0.00 W/m2
22:06 7 °C 6.3 °C 1021.2 hPa Calm     95% 0 mm 0.00 W/m2
22:11 7 °C 6.3 °C 1021.2 hPa Calm     95% 0 mm 0.00 W/m2
22:16 6.9 °C 6.2 °C 1021.2 hPa Calm     95% 0 mm 0.00 W/m2
22:21 6.9 °C 6.2 °C 1021.2 hPa Calm     95% 0 mm 0.00 W/m2
22:26 6.9 °C 6.2 °C 1021.2 hPa Calm     95% 0 mm 0.00 W/m2
22:31 6.9 °C 6.2 °C 1021.2 hPa Calm     95% 0 mm 0.00 W/m2
22:36 6.9 °C 6.2 °C 1021.6 hPa Calm     95% 0 mm 0.00 W/m2
22:41 6.9 °C 6.2 °C 1021.2 hPa Calm     95% 0 mm 0.00 W/m2
22:46 6.9 °C 6.2 °C 1021.2 hPa Calm     95% 0 mm 0.00 W/m2
22:51 6.9 °C 6.2 °C 1021.2 hPa Calm     95% 0 mm 0.00 W/m2
22:56 6.9 °C 6.2 °C 1021.2 hPa Calm     95% 0 mm 0.00 W/m2
23:01 6.9 °C 6.2 °C 1021.2 hPa Calm     95% 0 mm 0.00 W/m2
23:06 6.9 °C 6.2 °C 1021.2 hPa Calm     95% 0 mm 0.00 W/m2
23:11 6.9 °C 6.2 °C 1021.2 hPa Calm     95% 0 mm 0.00 W/m2
23:16 7 °C 6.3 °C 1021.2 hPa Calm     95% 0 mm 0.00 W/m2
23:21 7.1 °C 6.3 °C 1020.9 hPa Calm     95% 0 mm 0.00 W/m2
23:26 7.1 °C 6.4 °C 1020.9 hPa Calm     95% 0 mm 0.00 W/m2
23:31 7.2 °C 6.4 °C 1020.5 hPa Calm   3.2 km/h 95% 0 mm 0.00 W/m2
23:36 7.2 °C 6.5 °C 1020.5 hPa SE 1.6 km/h 8 km/h 95% 0 mm 0.00 W/m2
23:41 7.2 °C 6.5 °C 1020.5 hPa Calm   6.4 km/h 95% 0 mm 0.00 W/m2
23:46 7.3 °C 6.6 °C 1020.5 hPa Calm   6.4 km/h 95% 0 mm 0.00 W/m2
23:51 7.3 °C 6.6 °C 1020.5 hPa Calm   8 km/h 95% 0 mm 0.00 W/m2
23:56 7.3 °C 6.6 °C 1020.2 hPa Calm   9.7 km/h 95% 0 mm 0.00 W/m2
Foresthill Weather
 WU-history PHP script courtesy of   Juneau County Weather.
powered by Cumulus v1.9.3 (1059)
Ambient Weather VWS v14.00
Top Contact Website Map Copyright © 2007 - 2018 Foresthillweather.com Never base important decisions on this or any weather information obtained from the Internet